sensor_id;sensor_type;location;lat;lon;timestamp;pressure;altitude;pressure_sealevel;temperature;humidity
47883;BME280;37739;50.350;7.578;2023-07-31T00:01:25;99515.50;;;19.75;58.01
47883;BME280;37739;50.350;7.578;2023-07-31T00:03:50;99527.63;;;19.79;57.88
47883;BME280;37739;50.350;7.578;2023-07-31T00:06:18;99527.63;;;19.77;57.95
47883;BME280;37739;50.350;7.578;2023-07-31T00:08:48;99513.78;;;19.69;58.60
47883;BME280;37739;50.350;7.578;2023-07-31T00:11:13;99506.81;;;19.67;58.52
47883;BME280;37739;50.350;7.578;2023-07-31T00:13:39;99504.25;;;19.64;58.84
47883;BME280;37739;50.350;7.578;2023-07-31T00:16:07;99499.00;;;19.67;58.37
47883;BME280;37739;50.350;7.578;2023-07-31T00:18:33;99487.78;;;19.58;58.97
47883;BME280;37739;50.350;7.578;2023-07-31T00:20:58;99488.69;;;19.54;59.88
47883;BME280;37739;50.350;7.578;2023-07-31T00:23:26;99476.56;;;19.52;59.81
47883;BME280;37739;50.350;7.578;2023-07-31T00:25:51;99469.66;;;19.48;59.81
47883;BME280;37739;50.350;7.578;2023-07-31T00:28:16;99465.28;;;19.47;60.23
47883;BME280;37739;50.350;7.578;2023-07-31T00:30:42;99466.19;;;19.41;60.73
47883;BME280;37739;50.350;7.578;2023-07-31T00:33:09;99475.69;;;19.43;60.75
47883;BME280;37739;50.350;7.578;2023-07-31T00:35:37;99468.75;;;19.46;60.47
47883;BME280;37739;50.350;7.578;2023-07-31T00:38:02;99453.19;;;19.44;60.87
47883;BME280;37739;50.350;7.578;2023-07-31T00:40:34;99448.84;;;19.45;60.72
47883;BME280;37739;50.350;7.578;2023-07-31T00:43:02;99460.09;;;19.43;60.44
47883;BME280;37739;50.350;7.578;2023-07-31T00:45:29;99464.44;;;19.41;60.85
47883;BME280;37739;50.350;7.578;2023-07-31T00:47:57;99468.75;;;19.46;60.87
47883;BME280;37739;50.350;7.578;2023-07-31T00:50:24;99452.28;;;19.43;61.56
47883;BME280;37739;50.350;7.578;2023-07-31T00:52:50;99442.78;;;19.44;60.67
47883;BME280;37739;50.350;7.578;2023-07-31T00:55:16;99441.91;;;19.42;61.08
47883;BME280;37739;50.350;7.578;2023-07-31T00:57:42;99444.50;;;19.47;61.04
47883;BME280;37739;50.350;7.578;2023-07-31T01:00:08;99451.47;;;19.38;61.04
47883;BME280;37739;50.350;7.578;2023-07-31T01:02:34;99457.53;;;19.40;61.04
47883;BME280;37739;50.350;7.578;2023-07-31T01:05:03;99460.97;;;19.39;61.26
47883;BME280;37739;50.350;7.578;2023-07-31T01:07:59;99463.59;;;19.39;61.73
47883;BME280;37739;50.350;7.578;2023-07-31T01:10:37;99459.28;;;19.35;61.14
47883;BME280;37739;50.350;7.578;2023-07-31T01:13:06;99454.06;;;19.38;61.40
47883;BME280;37739;50.350;7.578;2023-07-31T01:15:37;99449.72;;;19.39;61.32
47883;BME280;37739;50.350;7.578;2023-07-31T01:18:03;99444.53;;;19.37;61.47
47883;BME280;37739;50.350;7.578;2023-07-31T01:20:30;99442.78;;;19.39;61.69
47883;BME280;37739;50.350;7.578;2023-07-31T01:25:56;99459.31;;;19.26;63.00
47883;BME280;37739;50.350;7.578;2023-07-31T01:31:23;99450.63;;;19.33;62.27
47883;BME280;37739;50.350;7.578;2023-07-31T01:33:53;99457.56;;;19.31;62.28
47883;BME280;37739;50.350;7.578;2023-07-31T01:36:20;99456.69;;;19.28;62.23
47883;BME280;37739;50.350;7.578;2023-07-31T01:38:47;99457.59;;;19.25;62.66
47883;BME280;37739;50.350;7.578;2023-07-31T01:41:18;99465.38;;;19.30;62.49
47883;BME280;37739;50.350;7.578;2023-07-31T01:43:46;99469.72;;;19.31;62.83
47883;BME280;37739;50.350;7.578;2023-07-31T01:46:14;99462.75;;;19.31;62.47
47883;BME280;37739;50.350;7.578;2023-07-31T01:48:39;99448.88;;;19.34;62.20
47883;BME280;37739;50.350;7.578;2023-07-31T01:51:06;99440.28;;;19.21;63.14
47883;BME280;37739;50.350;7.578;2023-07-31T01:53:32;99445.47;;;19.18;62.92
47883;BME280;37739;50.350;7.578;2023-07-31T01:55:57;99438.53;;;19.18;63.05
47883;BME280;37739;50.350;7.578;2023-07-31T01:58:22;99439.41;;;19.14;63.49
47883;BME280;37739;50.350;7.578;2023-07-31T02:00:48;99437.72;;;19.01;63.97
47883;BME280;37739;50.350;7.578;2023-07-31T02:03:15;99443.78;;;19.05;63.78
47883;BME280;37739;50.350;7.578;2023-07-31T02:05:44;99446.38;;;19.03;64.06
47883;BME280;37739;50.350;7.578;2023-07-31T02:08:11;99445.53;;;18.99;64.58
47883;BME280;37739;50.350;7.578;2023-07-31T02:10:36;99440.31;;;19.02;63.95
47883;BME280;37739;50.350;7.578;2023-07-31T02:13:01;99440.28;;;19.09;63.77
47883;BME280;37739;50.350;7.578;2023-07-31T02:15:29;99430.75;;;19.11;64.26
47883;BME280;37739;50.350;7.578;2023-07-31T02:17:54;99425.59;;;19.06;64.55
47883;BME280;37739;50.350;7.578;2023-07-31T02:20:22;99423.88;;;19.03;64.44
47883;BME280;37739;50.350;7.578;2023-07-31T02:22:47;99412.59;;;19.05;64.46
47883;BME280;37739;50.350;7.578;2023-07-31T02:25:15;99420.41;;;18.98;64.80
47883;BME280;37739;50.350;7.578;2023-07-31T02:27:43;99421.28;;;18.94;65.54
47883;BME280;37739;50.350;7.578;2023-07-31T02:30:08;99412.63;;;18.91;65.41
47883;BME280;37739;50.350;7.578;2023-07-31T02:32:34;99408.28;;;18.91;65.28
47883;BME280;37739;50.350;7.578;2023-07-31T02:34:59;99422.16;;;18.86;65.77
47883;BME280;37739;50.350;7.578;2023-07-31T02:37:27;99419.56;;;18.90;66.02
47883;BME280;37739;50.350;7.578;2023-07-31T02:39:55;99416.94;;;18.93;65.91
47883;BME280;37739;50.350;7.578;2023-07-31T02:42:23;99417.84;;;18.92;65.85
47883;BME280;37739;50.350;7.578;2023-07-31T02:44:48;99416.13;;;18.87;66.34
47883;BME280;37739;50.350;7.578;2023-07-31T02:47:21;99413.53;;;18.88;66.26
47883;BME280;37739;50.350;7.578;2023-07-31T02:49:49;99421.31;;;18.88;66.42
47883;BME280;37739;50.350;7.578;2023-07-31T02:52:16;99420.47;;;18.86;66.80
47883;BME280;37739;50.350;7.578;2023-07-31T02:54:44;99424.78;;;18.87;66.39
47883;BME280;37739;50.350;7.578;2023-07-31T02:57:12;99419.56;;;18.86;66.74
47883;BME280;37739;50.350;7.578;2023-07-31T02:59:37;99416.13;;;18.87;66.58
47883;BME280;37739;50.350;7.578;2023-07-31T03:02:07;99427.34;;;18.76;67.60
47883;BME280;37739;50.350;7.578;2023-07-31T03:04:33;99422.16;;;18.79;67.18
47883;BME280;37739;50.350;7.578;2023-07-31T03:06:58;99422.19;;;18.81;67.63
47883;BME280;37739;50.350;7.578;2023-07-31T03:09:26;99419.59;;;18.81;67.35
47883;BME280;37739;50.350;7.578;2023-07-31T03:11:51;99425.66;;;18.77;67.91
47883;BME280;37739;50.350;7.578;2023-07-31T03:14:19;99421.31;;;18.79;68.03
47883;BME280;37739;50.350;7.578;2023-07-31T03:16:47;99421.31;;;18.79;67.92
47883;BME280;37739;50.350;7.578;2023-07-31T03:19:13;99415.25;;;18.78;68.26
47883;BME280;37739;50.350;7.578;2023-07-31T03:21:38;99412.66;;;18.71;68.62
47883;BME280;37739;50.350;7.578;2023-07-31T03:24:04;99416.13;;;18.73;68.76
47883;BME280;37739;50.350;7.578;2023-07-31T03:26:31;99412.66;;;18.74;69.27
47883;BME280;37739;50.350;7.578;2023-07-31T03:29:01;99414.41;;;18.66;70.10
47883;BME280;37739;50.350;7.578;2023-07-31T03:31:29;99418.72;;;18.70;68.96
47883;BME280;37739;50.350;7.578;2023-07-31T03:33:54;99410.91;;;18.67;70.12
47883;BME280;37739;50.350;7.578;2023-07-31T03:36:22;99409.19;;;18.72;69.53
47883;BME280;37739;50.350;7.578;2023-07-31T03:38:47;99416.09;;;18.74;69.81
47883;BME280;37739;50.350;7.578;2023-07-31T03:41:15;99410.91;;;18.67;70.16
47883;BME280;37739;50.350;7.578;2023-07-31T03:43:40;99415.25;;;18.64;70.29
47883;BME280;37739;50.350;7.578;2023-07-31T03:46:05;99408.34;;;18.65;70.42
47883;BME280;37739;50.350;7.578;2023-07-31T03:48:31;99408.34;;;18.54;71.76
47883;BME280;37739;50.350;7.578;2023-07-31T03:50:58;99390.19;;;18.57;71.24
47883;BME280;37739;50.350;7.578;2023-07-31T03:53:29;99389.28;;;18.58;71.48
47883;BME280;37739;50.350;7.578;2023-07-31T03:55:56;99384.97;;;18.62;71.24
47883;BME280;37739;50.350;7.578;2023-07-31T03:58:21;99391.00;;;18.62;71.41
47883;BME280;37739;50.350;7.578;2023-07-31T04:00:47;99374.59;;;18.57;71.53
47883;BME280;37739;50.350;7.578;2023-07-31T04:03:12;99367.66;;;18.58;71.54
47883;BME280;37739;50.350;7.578;2023-07-31T04:05:38;99356.41;;;18.56;71.71
47883;BME280;37739;50.350;7.578;2023-07-31T04:08:04;99347.75;;;18.52;72.17
47883;BME280;37739;50.350;7.578;2023-07-31T04:10:30;99360.75;;;18.44;71.99
47883;BME280;37739;50.350;7.578;2023-07-31T04:12:58;99360.75;;;18.46;72.79
47883;BME280;37739;50.350;7.578;2023-07-31T04:15:23;99372.00;;;18.50;71.99
47883;BME280;37739;50.350;7.578;2023-07-31T04:17:48;99371.13;;;18.52;72.13
47883;BME280;37739;50.350;7.578;2023-07-31T04:20:16;99367.69;;;18.50;72.15
47883;BME280;37739;50.350;7.578;2023-07-31T04:22:42;99375.47;;;18.52;72.19
47883;BME280;37739;50.350;7.578;2023-07-31T04:25:09;99378.06;;;18.49;73.24
47883;BME280;37739;50.350;7.578;2023-07-31T04:27:34;99369.41;;;18.45;73.16
47883;BME280;37739;50.350;7.578;2023-07-31T04:30:02;99365.97;;;18.46;73.15
47883;BME280;37739;50.350;7.578;2023-07-31T04:32:28;99369.41;;;18.48;73.02
47883;BME280;37739;50.350;7.578;2023-07-31T04:34:54;99367.66;;;18.49;73.41
47883;BME280;37739;50.350;7.578;2023-07-31T04:37:20;99361.59;;;18.54;73.03
47883;BME280;37739;50.350;7.578;2023-07-31T04:39:45;99370.25;;;18.53;72.79
47883;BME280;37739;50.350;7.578;2023-07-31T04:42:13;99370.25;;;18.56;72.54
47883;BME280;37739;50.350;7.578;2023-07-31T04:44:40;99372.00;;;18.57;72.91
47883;BME280;37739;50.350;7.578;2023-07-31T04:47:08;99366.81;;;18.56;73.29
47883;BME280;37739;50.350;7.578;2023-07-31T04:49:33;99368.53;;;18.54;73.05
47883;BME280;37739;50.350;7.578;2023-07-31T04:51:58;99371.13;;;18.49;73.45
47883;BME280;37739;50.350;7.578;2023-07-31T04:54:28;99365.97;;;18.48;73.90
47883;BME280;37739;50.350;7.578;2023-07-31T04:56:56;99359.00;;;18.51;74.18
47883;BME280;37739;50.350;7.578;2023-07-31T04:59:21;99355.53;;;18.52;74.15
47883;BME280;37739;50.350;7.578;2023-07-31T05:01:47;99366.81;;;18.45;74.41
47883;BME280;37739;50.350;7.578;2023-07-31T05:04:15;99367.66;;;18.49;74.32
47883;BME280;37739;50.350;7.578;2023-07-31T05:06:41;99365.06;;;18.50;73.94
47883;BME280;37739;50.350;7.578;2023-07-31T05:09:07;99360.75;;;18.51;73.92
47883;BME280;37739;50.350;7.578;2023-07-31T05:11:37;99362.47;;;18.47;74.20
47883;BME280;37739;50.350;7.578;2023-07-31T05:14:02;99352.94;;;18.52;74.29
47883;BME280;37739;50.350;7.578;2023-07-31T05:16:27;99356.41;;;18.56;74.04
47883;BME280;37739;50.350;7.578;2023-07-31T05:18:55;99360.72;;;18.57;73.61
47883;BME280;37739;50.350;7.578;2023-07-31T05:21:20;99364.19;;;18.51;74.22
47883;BME280;37739;50.350;7.578;2023-07-31T05:23:49;99367.69;;;18.52;74.09
47883;BME280;37739;50.350;7.578;2023-07-31T05:26:17;99366.81;;;18.56;73.73
47883;BME280;37739;50.350;7.578;2023-07-31T05:28:42;99359.84;;;18.64;73.83
47883;BME280;37739;50.350;7.578;2023-07-31T05:31:08;99358.13;;;18.61;73.42
47883;BME280;37739;50.350;7.578;2023-07-31T05:33:33;99346.84;;;18.66;73.31
47883;BME280;37739;50.350;7.578;2023-07-31T05:35:59;99354.66;;;18.62;73.74
47883;BME280;37739;50.350;7.578;2023-07-31T05:38:26;99346.88;;;18.58;73.69
47883;BME280;37739;50.350;7.578;2023-07-31T05:40:54;99348.59;;;18.60;73.74
47883;BME280;37739;50.350;7.578;2023-07-31T05:43:20;99346.00;;;18.62;73.84
47883;BME280;37739;50.350;7.578;2023-07-31T05:45:48;99349.44;;;18.61;74.10
47883;BME280;37739;50.350;7.578;2023-07-31T05:48:13;99349.44;;;18.66;73.78
47883;BME280;37739;50.350;7.578;2023-07-31T05:50:38;99343.38;;;18.67;73.68
47883;BME280;37739;50.350;7.578;2023-07-31T05:53:05;99346.81;;;18.69;73.44
47883;BME280;37739;50.350;7.578;2023-07-31T05:55:30;99346.00;;;18.63;73.80
47883;BME280;37739;50.350;7.578;2023-07-31T05:57:56;99349.44;;;18.64;73.55
47883;BME280;37739;50.350;7.578;2023-07-31T06:00:23;99341.66;;;18.66;73.29
47883;BME280;37739;50.350;7.578;2023-07-31T06:02:51;99337.31;;;18.64;73.92
47883;BME280;37739;50.350;7.578;2023-07-31T06:05:18;99338.19;;;18.73;73.14
47883;BME280;37739;50.350;7.578;2023-07-31T06:07:44;99331.25;;;18.82;72.65
47883;BME280;37739;50.350;7.578;2023-07-31T06:10:11;99325.16;;;18.83;73.11
47883;BME280;37739;50.350;7.578;2023-07-31T06:12:37;99319.94;;;18.90;72.31
47883;BME280;37739;50.350;7.578;2023-07-31T06:15:03;99334.63;;;18.98;72.27
47883;BME280;37739;50.350;7.578;2023-07-31T06:17:28;99313.81;;;19.03;71.48
47883;BME280;37739;50.350;7.578;2023-07-31T06:19:54;99319.00;;;19.05;71.57
47883;BME280;37739;50.350;7.578;2023-07-31T06:22:22;99322.44;;;19.10;71.33
47883;BME280;37739;50.350;7.578;2023-07-31T06:24:50;99319.00;;;19.06;71.17
47883;BME280;37739;50.350;7.578;2023-07-31T06:27:17;99325.06;;;19.07;70.93
47883;BME280;37739;50.350;7.578;2023-07-31T06:29:45;99323.34;;;19.02;70.81
47883;BME280;37739;50.350;7.578;2023-07-31T06:32:13;99326.78;;;19.06;70.92
47883;BME280;37739;50.350;7.578;2023-07-31T06:34:38;99324.19;;;19.03;71.83
47883;BME280;37739;50.350;7.578;2023-07-31T06:37:04;99326.88;;;18.91;72.43
47883;BME280;37739;50.350;7.578;2023-07-31T06:39:29;99321.69;;;18.86;72.44
47883;BME280;37739;50.350;7.578;2023-07-31T06:41:57;99324.31;;;18.86;72.98
47883;BME280;37739;50.350;7.578;2023-07-31T06:44:25;99301.81;;;18.80;73.61
47883;BME280;37739;50.350;7.578;2023-07-31T06:46:51;99304.41;;;18.80;73.99
47883;BME280;37739;50.350;7.578;2023-07-31T06:49:16;99305.25;;;18.75;75.30
47883;BME280;37739;50.350;7.578;2023-07-31T06:51:44;99305.28;;;18.64;75.62
47883;BME280;37739;50.350;7.578;2023-07-31T06:54:11;99303.53;;;18.64;75.81
47883;BME280;37739;50.350;7.578;2023-07-31T06:56:39;99300.97;;;18.61;74.93
47883;BME280;37739;50.350;7.578;2023-07-31T06:59:07;99307.03;;;18.65;75.65
47883;BME280;37739;50.350;7.578;2023-07-31T07:01:34;99302.69;;;18.66;75.50
47883;BME280;37739;50.350;7.578;2023-07-31T07:04:00;99293.16;;;18.71;75.45
47883;BME280;37739;50.350;7.578;2023-07-31T07:06:26;99296.56;;;18.79;75.63
47883;BME280;37739;50.350;7.578;2023-07-31T07:08:54;99299.16;;;18.83;75.35
47883;BME280;37739;50.350;7.578;2023-07-31T07:11:24;99301.78;;;18.83;75.21
47883;BME280;37739;50.350;7.578;2023-07-31T07:13:51;99300.91;;;18.85;75.01
47883;BME280;37739;50.350;7.578;2023-07-31T07:16:19;99308.72;;;18.81;74.96
47883;BME280;37739;50.350;7.578;2023-07-31T07:18:47;99306.09;;;18.86;75.14
47883;BME280;37739;50.350;7.578;2023-07-31T07:21:12;99296.56;;;18.85;74.71
47883;BME280;37739;50.350;7.578;2023-07-31T07:23:41;99296.59;;;18.80;74.03
47883;BME280;37739;50.350;7.578;2023-07-31T07:26:09;99295.69;;;18.88;73.81
47883;BME280;37739;50.350;7.578;2023-07-31T07:28:37;99291.34;;;18.94;73.45
47883;BME280;37739;50.350;7.578;2023-07-31T07:31:04;99308.63;;;18.98;73.29
47883;BME280;37739;50.350;7.578;2023-07-31T07:33:30;99291.31;;;18.97;72.99
47883;BME280;37739;50.350;7.578;2023-07-31T07:35:55;99286.94;;;19.02;72.51
47883;BME280;37739;50.350;7.578;2023-07-31T07:38:27;99280.00;;;19.08;72.46
47883;BME280;37739;50.350;7.578;2023-07-31T07:40:52;99279.09;;;19.09;71.62
47883;BME280;37739;50.350;7.578;2023-07-31T07:43:21;99269.59;;;19.08;71.99
47883;BME280;37739;50.350;7.578;2023-07-31T07:45:48;99261.75;;;19.11;71.90
47883;BME280;37739;50.350;7.578;2023-07-31T07:48:19;99267.81;;;19.16;71.63
47883;BME280;37739;50.350;7.578;2023-07-31T07:50:49;99266.91;;;19.23;71.52
47883;BME280;37739;50.350;7.578;2023-07-31T07:53:14;99266.84;;;19.28;72.12
47883;BME280;37739;50.350;7.578;2023-07-31T07:55:42;99264.25;;;19.28;72.09
47883;BME280;37739;50.350;7.578;2023-07-31T07:58:08;99260.81;;;19.27;72.69
47883;BME280;37739;50.350;7.578;2023-07-31T08:00:35;99252.22;;;19.14;72.28
47883;BME280;37739;50.350;7.578;2023-07-31T08:03:01;99262.59;;;19.14;72.66
47883;BME280;37739;50.350;7.578;2023-07-31T08:05:28;99269.56;;;19.12;72.37
47883;BME280;37739;50.350;7.578;2023-07-31T08:07:54;99273.03;;;19.11;72.50
47883;BME280;37739;50.350;7.578;2023-07-31T08:10:19;99273.06;;;19.08;72.01
47883;BME280;37739;50.350;7.578;2023-07-31T08:12:47;99269.56;;;19.12;72.68
47883;BME280;37739;50.350;7.578;2023-07-31T08:15:12;99270.44;;;19.11;72.93
47883;BME280;37739;50.350;7.578;2023-07-31T08:17:37;99276.56;;;19.04;73.85
47883;BME280;37739;50.350;7.578;2023-07-31T08:20:03;99273.97;;;18.99;73.30
47883;BME280;37739;50.350;7.578;2023-07-31T08:22:28;99271.41;;;18.93;73.86
47883;BME280;37739;50.350;7.578;2023-07-31T08:24:56;99262.75;;;18.90;74.21
47883;BME280;37739;50.350;7.578;2023-07-31T08:27:21;99268.03;;;18.80;75.04
47883;BME280;37739;50.350;7.578;2023-07-31T08:29:49;99263.66;;;18.79;76.71
47883;BME280;37739;50.350;7.578;2023-07-31T08:32:19;99255.84;;;18.76;77.90
47883;BME280;37739;50.350;7.578;2023-07-31T08:34:45;99255.88;;;18.81;77.38
47883;BME280;37739;50.350;7.578;2023-07-31T08:37:10;99244.59;;;18.79;77.96
47883;BME280;37739;50.350;7.578;2023-07-31T08:39:38;99250.69;;;18.81;78.13
47883;BME280;37739;50.350;7.578;2023-07-31T08:42:09;99249.78;;;18.83;79.28
47883;BME280;37739;50.350;7.578;2023-07-31T08:44:35;99257.59;;;18.87;78.50
47883;BME280;37739;50.350;7.578;2023-07-31T08:47:03;99251.50;;;18.92;78.52
47883;BME280;37739;50.350;7.578;2023-07-31T08:49:29;99247.16;;;18.94;78.49
47883;BME280;37739;50.350;7.578;2023-07-31T08:51:55;99246.25;;;18.95;78.78
47883;BME280;37739;50.350;7.578;2023-07-31T08:54:23;99247.97;;;18.99;78.32
47883;BME280;37739;50.350;7.578;2023-07-31T08:56:49;99247.97;;;19.01;77.95
47883;BME280;37739;50.350;7.578;2023-07-31T08:59:15;99241.06;;;19.01;78.43
47883;BME280;37739;50.350;7.578;2023-07-31T09:01:47;99241.06;;;19.01;78.39
47883;BME280;37739;50.350;7.578;2023-07-31T09:04:16;99243.66;;;18.98;77.46
47883;BME280;37739;50.350;7.578;2023-07-31T09:06:46;99234.97;;;19.02;77.64
47883;BME280;37739;50.350;7.578;2023-07-31T09:09:13;99241.06;;;19.00;78.13
47883;BME280;37739;50.350;7.578;2023-07-31T09:11:40;99244.50;;;19.03;77.08
47883;BME280;37739;50.350;7.578;2023-07-31T09:14:05;99240.16;;;19.06;77.21
47883;BME280;37739;50.350;7.578;2023-07-31T09:16:34;99232.41;;;18.98;76.76
47883;BME280;37739;50.350;7.578;2023-07-31T09:19:00;99228.91;;;19.02;76.08
47883;BME280;37739;50.350;7.578;2023-07-31T09:21:28;99226.25;;;19.10;76.01
47883;BME280;37739;50.350;7.578;2023-07-31T09:23:57;99225.41;;;19.05;75.36
47883;BME280;37739;50.350;7.578;2023-07-31T09:26:35;99227.97;;;19.14;75.87
47883;BME280;37739;50.350;7.578;2023-07-31T09:29:07;99230.53;;;19.17;74.64
47883;BME280;37739;50.350;7.578;2023-07-31T09:31:43;99218.41;;;19.17;74.35
47883;BME280;37739;50.350;7.578;2023-07-31T09:34:11;99230.50;;;19.25;74.42
47883;BME280;37739;50.350;7.578;2023-07-31T09:36:59;99206.19;;;19.29;73.98
47883;BME280;37739;50.350;7.578;2023-07-31T09:39:26;99205.22;;;19.40;73.56
47883;BME280;37739;50.350;7.578;2023-07-31T09:41:55;99206.03;;;19.46;72.28
47883;BME280;37739;50.350;7.578;2023-07-31T09:44:40;99198.13;;;19.58;72.43
47883;BME280;37739;50.350;7.578;2023-07-31T09:47:08;99185.91;;;19.65;71.12
47883;BME280;37739;50.350;7.578;2023-07-31T09:49:51;99187.59;;;19.69;71.26
47883;BME280;37739;50.350;7.578;2023-07-31T09:52:16;99192.72;;;19.83;71.36
47883;BME280;37739;50.350;7.578;2023-07-31T09:54:42;99181.41;;;19.84;70.79
47883;BME280;37739;50.350;7.578;2023-07-31T09:57:08;99180.56;;;19.85;70.38
47883;BME280;37739;50.350;7.578;2023-07-31T09:59:35;99181.41;;;19.84;69.70
47883;BME280;37739;50.350;7.578;2023-07-31T10:02:01;99175.28;;;19.89;69.70
47883;BME280;37739;50.350;7.578;2023-07-31T10:04:27;99178.63;;;20.02;69.40
47883;BME280;37739;50.350;7.578;2023-07-31T10:06:55;99191.47;;;20.17;68.48
47883;BME280;37739;50.350;7.578;2023-07-31T10:09:23;99179.22;;;20.23;68.07
47883;BME280;37739;50.350;7.578;2023-07-31T10:11:59;99168.38;;;20.56;67.59
47883;BME280;37739;50.350;7.578;2023-07-31T10:14:26;99165.59;;;20.70;67.33
47883;BME280;37739;50.350;7.578;2023-07-31T10:16:52;99175.28;;;20.64;66.03
47883;BME280;37739;50.350;7.578;2023-07-31T10:19:25;99158.88;;;20.54;66.39
47883;BME280;37739;50.350;7.578;2023-07-31T10:21:52;99161.53;;;20.49;66.04
47883;BME280;37739;50.350;7.578;2023-07-31T10:24:20;99154.72;;;20.40;65.65
47883;BME280;37739;50.350;7.578;2023-07-31T10:26:47;99159.94;;;20.39;65.20
47883;BME280;37739;50.350;7.578;2023-07-31T10:29:17;99163.38;;;20.41;64.83
47883;BME280;37739;50.350;7.578;2023-07-31T10:31:46;99166.69;;;20.54;64.38
47883;BME280;37739;50.350;7.578;2023-07-31T10:34:13;99154.41;;;20.65;64.12
47883;BME280;37739;50.350;7.578;2023-07-31T10:36:38;99146.41;;;20.77;63.41
47883;BME280;37739;50.350;7.578;2023-07-31T10:39:37;99140.56;;;21.17;61.99
47883;BME280;37739;50.350;7.578;2023-07-31T10:42:12;99136.72;;;21.38;62.18
47883;BME280;37739;50.350;7.578;2023-07-31T10:44:38;99145.16;;;21.54;62.31
47883;BME280;37739;50.350;7.578;2023-07-31T10:47:06;99139.13;;;21.52;61.51
47883;BME280;37739;50.350;7.578;2023-07-31T10:49:32;99140.13;;;21.44;61.75
47883;BME280;37739;50.350;7.578;2023-07-31T10:51:57;99135.81;;;21.41;61.04
47883;BME280;37739;50.350;7.578;2023-07-31T10:54:24;99123.59;;;21.42;61.27
47883;BME280;37739;50.350;7.578;2023-07-31T10:56:52;99131.44;;;21.45;61.08
47883;BME280;37739;50.350;7.578;2023-07-31T10:59:18;99136.78;;;21.34;60.96
47883;BME280;37739;50.350;7.578;2023-07-31T11:01:56;99134.31;;;21.25;60.89
47883;BME280;37739;50.350;7.578;2023-07-31T11:04:26;99134.41;;;21.22;61.59
47883;BME280;37739;50.350;7.578;2023-07-31T11:07:00;99143.97;;;21.21;61.48
47883;BME280;37739;50.350;7.578;2023-07-31T11:09:31;99135.25;;;21.24;61.28
47883;BME280;37739;50.350;7.578;2023-07-31T11:11:59;99137.03;;;21.20;61.87
47883;BME280;37739;50.350;7.578;2023-07-31T11:14:25;99131.97;;;21.11;61.59
47883;BME280;37739;50.350;7.578;2023-07-31T11:16:51;99142.34;;;21.14;61.76
47883;BME280;37739;50.350;7.578;2023-07-31T11:19:25;99137.84;;;21.24;61.74
47883;BME280;37739;50.350;7.578;2023-07-31T11:21:53;99141.97;;;21.37;61.72
47883;BME280;37739;50.350;7.578;2023-07-31T11:24:20;99144.47;;;21.43;61.55
47883;BME280;37739;50.350;7.578;2023-07-31T11:26:54;99146.25;;;21.41;61.43
47883;BME280;37739;50.350;7.578;2023-07-31T11:29:20;99147.06;;;21.43;61.07
47883;BME280;37739;50.350;7.578;2023-07-31T11:31:46;99134.84;;;21.48;60.47
47883;BME280;37739;50.350;7.578;2023-07-31T11:34:12;99135.44;;;21.63;59.99
47883;BME280;37739;50.350;7.578;2023-07-31T11:36:38;99134.00;;;21.93;59.22
47883;BME280;37739;50.350;7.578;2023-07-31T11:39:10;99129.63;;;21.93;58.07
47883;BME280;37739;50.350;7.578;2023-07-31T11:41:40;99133.06;;;21.95;58.26
47883;BME280;37739;50.350;7.578;2023-07-31T11:44:08;99119.00;;;22.03;58.11
47883;BME280;37739;50.350;7.578;2023-07-31T11:46:36;99116.28;;;22.07;58.26
47883;BME280;37739;50.350;7.578;2023-07-31T11:49:01;99105.91;;;22.04;57.41
47883;BME280;37739;50.350;7.578;2023-07-31T11:51:27;99115.91;;;22.27;57.77
47883;BME280;37739;50.350;7.578;2023-07-31T11:53:57;99111.94;;;22.50;57.79
47883;BME280;37739;50.350;7.578;2023-07-31T11:56:24;99111.16;;;22.82;56.43
47883;BME280;37739;50.350;7.578;2023-07-31T11:58:54;99102.13;;;22.96;55.96
47883;BME280;37739;50.350;7.578;2023-07-31T12:01:21;99105.00;;;22.85;56.15
47883;BME280;37739;50.350;7.578;2023-07-31T12:03:47;99102.06;;;22.99;55.82
47883;BME280;37739;50.350;7.578;2023-07-31T12:06:15;99108.13;;;22.99;56.10
47883;BME280;37739;50.350;7.578;2023-07-31T12:08:41;99097.59;;;23.04;56.14
47883;BME280;37739;50.350;7.578;2023-07-31T12:11:08;99090.91;;;23.26;54.84
47883;BME280;37739;50.350;7.578;2023-07-31T12:13:40;99106.78;;;23.53;54.71
47883;BME280;37739;50.350;7.578;2023-07-31T12:16:05;99100.84;;;23.81;53.67
47883;BME280;37739;50.350;7.578;2023-07-31T12:18:37;99104.69;;;23.99;53.24
47883;BME280;37739;50.350;7.578;2023-07-31T12:21:08;99111.03;;;23.90;53.62
47883;BME280;37739;50.350;7.578;2023-07-31T12:23:35;99116.66;;;23.75;54.41
47883;BME280;37739;50.350;7.578;2023-07-31T12:26:12;99120.41;;;23.33;54.54
47883;BME280;37739;50.350;7.578;2023-07-31T12:28:40;99125.59;;;22.99;55.87
47883;BME280;37739;50.350;7.578;2023-07-31T12:31:10;99118.88;;;22.88;55.98
47883;BME280;37739;50.350;7.578;2023-07-31T12:33:37;99112.84;;;22.85;56.98
47883;BME280;37739;50.350;7.578;2023-07-31T12:36:07;99104.03;;;22.89;55.91
47883;BME280;37739;50.350;7.578;2023-07-31T12:38:35;99096.06;;;22.93;56.23
47883;BME280;37739;50.350;7.578;2023-07-31T12:41:03;99098.78;;;22.90;56.37
47883;BME280;37739;50.350;7.578;2023-07-31T12:43:31;99103.59;;;22.71;56.49
47883;BME280;37739;50.350;7.578;2023-07-31T12:45:59;99102.78;;;22.68;56.59
47883;BME280;37739;50.350;7.578;2023-07-31T12:48:25;99115.78;;;22.71;57.49
47883;BME280;37739;50.350;7.578;2023-07-31T12:50:50;99112.50;;;22.63;57.33
47883;BME280;37739;50.350;7.578;2023-07-31T12:53:16;99096.34;;;22.45;57.04
47883;BME280;37739;50.350;7.578;2023-07-31T12:55:44;99094.50;;;22.49;57.13
47883;BME280;37739;50.350;7.578;2023-07-31T12:58:09;99099.63;;;22.53;57.44
47883;BME280;37739;50.350;7.578;2023-07-31T13:00:35;99103.97;;;22.54;56.94
47883;BME280;37739;50.350;7.578;2023-07-31T13:03:00;99099.97;;;22.38;57.12
47883;BME280;37739;50.350;7.578;2023-07-31T13:05:29;99096.53;;;22.36;57.70
47883;BME280;37739;50.350;7.578;2023-07-31T13:07:56;99097.13;;;22.49;57.47